sensor_id;sensor_type;location;lat;lon;timestamp;P1;durP1;ratioP1;P2;durP2;ratioP2
79128;SDS011;68529;43.286;23.360;2024-01-10T00:02:18;8.70;;;5.13;;
79128;SDS011;68529;43.286;23.360;2024-01-10T00:04:44;6.63;;;4.60;;
79128;SDS011;68529;43.286;23.360;2024-01-10T00:07:09;6.20;;;4.80;;
79128;SDS011;68529;43.286;23.360;2024-01-10T00:09:35;7.67;;;5.00;;
79128;SDS011;68529;43.286;23.360;2024-01-10T00:12:00;7.30;;;5.07;;
79128;SDS011;68529;43.286;23.360;2024-01-10T00:14:25;6.77;;;4.83;;
79128;SDS011;68529;43.286;23.360;2024-01-10T00:16:51;6.00;;;4.87;;
79128;SDS011;68529;43.286;23.360;2024-01-10T00:19:16;6.77;;;5.10;;
79128;SDS011;68529;43.286;23.360;2024-01-10T00:21:41;9.20;;;4.93;;
79128;SDS011;68529;43.286;23.360;2024-01-10T00:24:07;7.20;;;4.80;;
79128;SDS011;68529;43.286;23.360;2024-01-10T00:26:32;7.23;;;5.13;;
79128;SDS011;68529;43.286;23.360;2024-01-10T00:28:58;5.87;;;4.77;;
79128;SDS011;68529;43.286;23.360;2024-01-10T00:31:23;7.07;;;4.73;;
79128;SDS011;68529;43.286;23.360;2024-01-10T00:33:49;4.60;;;3.93;;
79128;SDS011;68529;43.286;23.360;2024-01-10T00:36:14;6.13;;;4.63;;
79128;SDS011;68529;43.286;23.360;2024-01-10T00:38:40;5.77;;;3.80;;
79128;SDS011;68529;43.286;23.360;2024-01-10T00:41:05;5.63;;;4.97;;
79128;SDS011;68529;43.286;23.360;2024-01-10T00:43:30;5.00;;;4.20;;
79128;SDS011;68529;43.286;23.360;2024-01-10T00:45:56;5.10;;;3.63;;
79128;SDS011;68529;43.286;23.360;2024-01-10T00:48:22;5.77;;;4.17;;
79128;SDS011;68529;43.286;23.360;2024-01-10T00:50:47;8.07;;;3.97;;
79128;SDS011;68529;43.286;23.360;2024-01-10T00:53:13;5.50;;;3.97;;
79128;SDS011;68529;43.286;23.360;2024-01-10T00:55:38;5.17;;;3.93;;
79128;SDS011;68529;43.286;23.360;2024-01-10T00:58:04;5.93;;;4.53;;
79128;SDS011;68529;43.286;23.360;2024-01-10T01:00:29;7.93;;;4.80;;
79128;SDS011;68529;43.286;23.360;2024-01-10T01:02:55;7.13;;;4.87;;
79128;SDS011;68529;43.286;23.360;2024-01-10T01:05:20;5.67;;;5.07;;
79128;SDS011;68529;43.286;23.360;2024-01-10T01:07:45;8.80;;;5.00;;
79128;SDS011;68529;43.286;23.360;2024-01-10T01:10:11;9.03;;;5.00;;
79128;SDS011;68529;43.286;23.360;2024-01-10T01:12:36;14.87;;;7.27;;
79128;SDS011;68529;43.286;23.360;2024-01-10T01:15:02;9.57;;;5.63;;
79128;SDS011;68529;43.286;23.360;2024-01-10T01:17:28;7.77;;;5.13;;
79128;SDS011;68529;43.286;23.360;2024-01-10T01:19:54;6.53;;;4.30;;
79128;SDS011;68529;43.286;23.360;2024-01-10T01:22:19;6.50;;;5.20;;
79128;SDS011;68529;43.286;23.360;2024-01-10T01:24:44;6.23;;;4.33;;
79128;SDS011;68529;43.286;23.360;2024-01-10T01:27:10;7.50;;;4.53;;
79128;SDS011;68529;43.286;23.360;2024-01-10T01:29:35;5.90;;;4.20;;
79128;SDS011;68529;43.286;23.360;2024-01-10T01:32:01;5.93;;;4.33;;
79128;SDS011;68529;43.286;23.360;2024-01-10T01:34:26;6.43;;;4.27;;
79128;SDS011;68529;43.286;23.360;2024-01-10T01:36:51;5.73;;;4.50;;
79128;SDS011;68529;43.286;23.360;2024-01-10T01:39:20;5.23;;;4.27;;
79128;SDS011;68529;43.286;23.360;2024-01-10T01:41:45;8.37;;;5.73;;
79128;SDS011;68529;43.286;23.360;2024-01-10T01:44:11;10.57;;;7.13;;
79128;SDS011;68529;43.286;23.360;2024-01-10T01:46:36;8.07;;;6.40;;
79128;SDS011;68529;43.286;23.360;2024-01-10T01:49:02;9.47;;;6.57;;
79128;SDS011;68529;43.286;23.360;2024-01-10T01:51:29;12.27;;;6.77;;
79128;SDS011;68529;43.286;23.360;2024-01-10T01:53:56;5.10;;;4.33;;
79128;SDS011;68529;43.286;23.360;2024-01-10T01:56:22;6.03;;;4.20;;
79128;SDS011;68529;43.286;23.360;2024-01-10T01:58:50;5.13;;;3.83;;
79128;SDS011;68529;43.286;23.360;2024-01-10T02:01:17;11.87;;;6.37;;
79128;SDS011;68529;43.286;23.360;2024-01-10T02:03:46;9.07;;;5.40;;
79128;SDS011;68529;43.286;23.360;2024-01-10T02:06:12;5.63;;;4.63;;
79128;SDS011;68529;43.286;23.360;2024-01-10T02:08:37;7.07;;;4.87;;
79128;SDS011;68529;43.286;23.360;2024-01-10T02:11:03;8.00;;;4.93;;
79128;SDS011;68529;43.286;23.360;2024-01-10T02:13:29;7.27;;;4.63;;
79128;SDS011;68529;43.286;23.360;2024-01-10T02:15:57;7.03;;;4.90;;
79128;SDS011;68529;43.286;23.360;2024-01-10T02:18:23;7.47;;;5.13;;
79128;SDS011;68529;43.286;23.360;2024-01-10T02:20:49;8.07;;;4.47;;
79128;SDS011;68529;43.286;23.360;2024-01-10T02:23:15;7.93;;;4.73;;
79128;SDS011;68529;43.286;23.360;2024-01-10T02:25:40;7.93;;;3.90;;
79128;SDS011;68529;43.286;23.360;2024-01-10T02:28:07;6.17;;;3.90;;
79128;SDS011;68529;43.286;23.360;2024-01-10T02:30:34;6.07;;;4.50;;
79128;SDS011;68529;43.286;23.360;2024-01-10T02:32:59;5.97;;;4.17;;
79128;SDS011;68529;43.286;23.360;2024-01-10T02:35:25;8.13;;;5.33;;
79128;SDS011;68529;43.286;23.360;2024-01-10T02:37:51;7.03;;;5.40;;
79128;SDS011;68529;43.286;23.360;2024-01-10T02:40:17;8.57;;;4.53;;
79128;SDS011;68529;43.286;23.360;2024-01-10T02:42:43;6.70;;;5.13;;
79128;SDS011;68529;43.286;23.360;2024-01-10T02:45:09;6.30;;;4.33;;
79128;SDS011;68529;43.286;23.360;2024-01-10T02:47:35;7.33;;;4.40;;
79128;SDS011;68529;43.286;23.360;2024-01-10T02:50:04;7.30;;;4.53;;
79128;SDS011;68529;43.286;23.360;2024-01-10T02:52:31;4.67;;;4.00;;
79128;SDS011;68529;43.286;23.360;2024-01-10T02:54:56;9.00;;;5.60;;
79128;SDS011;68529;43.286;23.360;2024-01-10T02:57:22;8.67;;;5.90;;
79128;SDS011;68529;43.286;23.360;2024-01-10T02:59:47;8.67;;;5.70;;
79128;SDS011;68529;43.286;23.360;2024-01-10T03:02:12;25.70;;;15.60;;
79128;SDS011;68529;43.286;23.360;2024-01-10T03:04:38;21.80;;;11.97;;
79128;SDS011;68529;43.286;23.360;2024-01-10T03:07:04;14.73;;;9.00;;
79128;SDS011;68529;43.286;23.360;2024-01-10T03:09:29;13.10;;;9.23;;
79128;SDS011;68529;43.286;23.360;2024-01-10T03:11:54;9.27;;;6.37;;
79128;SDS011;68529;43.286;23.360;2024-01-10T03:14:20;15.00;;;8.50;;
79128;SDS011;68529;43.286;23.360;2024-01-10T03:16:45;15.03;;;8.37;;
79128;SDS011;68529;43.286;23.360;2024-01-10T03:19:11;9.20;;;6.73;;
79128;SDS011;68529;43.286;23.360;2024-01-10T03:21:36;8.90;;;6.47;;
79128;SDS011;68529;43.286;23.360;2024-01-10T03:24:02;9.87;;;6.70;;
79128;SDS011;68529;43.286;23.360;2024-01-10T03:26:27;7.63;;;4.93;;
79128;SDS011;68529;43.286;23.360;2024-01-10T03:28:55;5.90;;;4.70;;
79128;SDS011;68529;43.286;23.360;2024-01-10T03:31:21;7.17;;;4.97;;
79128;SDS011;68529;43.286;23.360;2024-01-10T03:33:46;5.70;;;4.57;;
79128;SDS011;68529;43.286;23.360;2024-01-10T03:36:13;7.60;;;4.33;;
79128;SDS011;68529;43.286;23.360;2024-01-10T03:38:40;5.77;;;4.37;;
79128;SDS011;68529;43.286;23.360;2024-01-10T03:41:05;7.07;;;4.10;;
79128;SDS011;68529;43.286;23.360;2024-01-10T03:43:31;14.43;;;9.43;;
79128;SDS011;68529;43.286;23.360;2024-01-10T03:45:57;11.43;;;7.50;;
79128;SDS011;68529;43.286;23.360;2024-01-10T03:48:22;15.60;;;11.40;;
79128;SDS011;68529;43.286;23.360;2024-01-10T03:50:48;15.30;;;9.93;;
79128;SDS011;68529;43.286;23.360;2024-01-10T03:53:13;10.00;;;6.70;;
79128;SDS011;68529;43.286;23.360;2024-01-10T03:55:39;7.03;;;4.50;;
79128;SDS011;68529;43.286;23.360;2024-01-10T03:58:04;7.37;;;6.23;;
79128;SDS011;68529;43.286;23.360;2024-01-10T04:00:30;10.10;;;7.70;;
79128;SDS011;68529;43.286;23.360;2024-01-10T04:02:55;8.20;;;6.10;;
79128;SDS011;68529;43.286;23.360;2024-01-10T04:05:21;8.50;;;5.27;;
79128;SDS011;68529;43.286;23.360;2024-01-10T04:07:47;6.30;;;4.70;;
79128;SDS011;68529;43.286;23.360;2024-01-10T04:10:13;6.50;;;4.57;;
79128;SDS011;68529;43.286;23.360;2024-01-10T04:12:42;7.00;;;5.67;;
79128;SDS011;68529;43.286;23.360;2024-01-10T04:15:08;18.83;;;9.00;;
79128;SDS011;68529;43.286;23.360;2024-01-10T04:17:34;19.87;;;10.73;;
79128;SDS011;68529;43.286;23.360;2024-01-10T04:19:59;12.27;;;7.20;;
79128;SDS011;68529;43.286;23.360;2024-01-10T04:22:25;11.47;;;7.70;;
79128;SDS011;68529;43.286;23.360;2024-01-10T04:24:50;10.23;;;6.57;;
79128;SDS011;68529;43.286;23.360;2024-01-10T04:27:16;12.57;;;7.07;;
79128;SDS011;68529;43.286;23.360;2024-01-10T04:29:43;7.97;;;6.03;;
79128;SDS011;68529;43.286;23.360;2024-01-10T04:32:08;7.33;;;5.43;;
79128;SDS011;68529;43.286;23.360;2024-01-10T04:34:34;7.87;;;6.03;;
79128;SDS011;68529;43.286;23.360;2024-01-10T04:36:59;7.40;;;4.63;;
79128;SDS011;68529;43.286;23.360;2024-01-10T04:39:25;9.20;;;5.80;;
79128;SDS011;68529;43.286;23.360;2024-01-10T04:41:50;7.47;;;5.00;;
79128;SDS011;68529;43.286;23.360;2024-01-10T04:44:16;9.03;;;5.20;;
79128;SDS011;68529;43.286;23.360;2024-01-10T04:46:41;6.43;;;4.73;;
79128;SDS011;68529;43.286;23.360;2024-01-10T04:49:07;7.27;;;4.80;;
79128;SDS011;68529;43.286;23.360;2024-01-10T04:51:32;6.40;;;4.67;;
79128;SDS011;68529;43.286;23.360;2024-01-10T04:53:58;8.13;;;5.60;;
79128;SDS011;68529;43.286;23.360;2024-01-10T04:56:23;11.07;;;9.00;;
79128;SDS011;68529;43.286;23.360;2024-01-10T04:58:48;8.63;;;7.20;;
79128;SDS011;68529;43.286;23.360;2024-01-10T05:01:14;9.30;;;7.03;;
79128;SDS011;68529;43.286;23.360;2024-01-10T05:03:39;9.90;;;6.67;;
79128;SDS011;68529;43.286;23.360;2024-01-10T05:06:05;10.10;;;6.90;;
79128;SDS011;68529;43.286;23.360;2024-01-10T05:08:30;10.23;;;6.73;;
79128;SDS011;68529;43.286;23.360;2024-01-10T05:10:56;8.07;;;6.10;;
79128;SDS011;68529;43.286;23.360;2024-01-10T05:13:22;7.83;;;5.40;;
79128;SDS011;68529;43.286;23.360;2024-01-10T05:15:47;12.17;;;7.10;;
79128;SDS011;68529;43.286;23.360;2024-01-10T05:18:12;11.27;;;7.10;;
79128;SDS011;68529;43.286;23.360;2024-01-10T05:20:38;13.17;;;8.17;;
79128;SDS011;68529;43.286;23.360;2024-01-10T05:23:03;14.23;;;9.13;;
79128;SDS011;68529;43.286;23.360;2024-01-10T05:25:29;21.50;;;15.80;;
79128;SDS011;68529;43.286;23.360;2024-01-10T05:27:54;18.10;;;10.77;;
79128;SDS011;68529;43.286;23.360;2024-01-10T05:30:20;13.80;;;8.77;;
79128;SDS011;68529;43.286;23.360;2024-01-10T05:32:45;15.23;;;10.70;;
79128;SDS011;68529;43.286;23.360;2024-01-10T05:35:11;16.10;;;11.17;;
79128;SDS011;68529;43.286;23.360;2024-01-10T05:37:36;14.50;;;9.53;;
79128;SDS011;68529;43.286;23.360;2024-01-10T05:40:02;7.83;;;6.53;;
79128;SDS011;68529;43.286;23.360;2024-01-10T05:42:30;8.53;;;6.43;;
79128;SDS011;68529;43.286;23.360;2024-01-10T05:44:55;9.57;;;6.70;;
79128;SDS011;68529;43.286;23.360;2024-01-10T05:47:20;6.90;;;5.70;;
79128;SDS011;68529;43.286;23.360;2024-01-10T05:49:46;8.77;;;6.40;;
79128;SDS011;68529;43.286;23.360;2024-01-10T05:52:11;9.23;;;6.63;;
79128;SDS011;68529;43.286;23.360;2024-01-10T05:54:37;9.90;;;7.33;;
79128;SDS011;68529;43.286;23.360;2024-01-10T05:57:03;8.27;;;6.63;;
79128;SDS011;68529;43.286;23.360;2024-01-10T05:59:28;10.70;;;5.90;;
79128;SDS011;68529;43.286;23.360;2024-01-10T06:01:55;8.80;;;6.03;;
79128;SDS011;68529;43.286;23.360;2024-01-10T06:04:22;10.33;;;7.87;;
79128;SDS011;68529;43.286;23.360;2024-01-10T06:06:47;26.07;;;15.80;;
79128;SDS011;68529;43.286;23.360;2024-01-10T06:09:12;26.63;;;12.90;;
79128;SDS011;68529;43.286;23.360;2024-01-10T06:11:41;38.90;;;19.40;;
79128;SDS011;68529;43.286;23.360;2024-01-10T06:14:07;39.83;;;20.67;;
79128;SDS011;68529;43.286;23.360;2024-01-10T06:16:32;45.57;;;23.07;;
79128;SDS011;68529;43.286;23.360;2024-01-10T06:19:01;46.83;;;22.83;;
79128;SDS011;68529;43.286;23.360;2024-01-10T06:21:38;37.37;;;21.17;;
79128;SDS011;68529;43.286;23.360;2024-01-10T06:24:03;32.53;;;19.80;;
79128;SDS011;68529;43.286;23.360;2024-01-10T06:26:29;21.50;;;13.83;;
79128;SDS011;68529;43.286;23.360;2024-01-10T06:28:54;12.60;;;7.97;;
79128;SDS011;68529;43.286;23.360;2024-01-10T06:31:20;7.93;;;6.60;;
79128;SDS011;68529;43.286;23.360;2024-01-10T06:33:45;8.20;;;6.00;;
79128;SDS011;68529;43.286;23.360;2024-01-10T06:36:11;8.50;;;5.67;;
79128;SDS011;68529;43.286;23.360;2024-01-10T06:38:38;7.57;;;5.83;;
79128;SDS011;68529;43.286;23.360;2024-01-10T06:41:10;9.20;;;6.13;;
79128;SDS011;68529;43.286;23.360;2024-01-10T06:43:39;8.80;;;6.37;;
79128;SDS011;68529;43.286;23.360;2024-01-10T06:46:05;8.90;;;6.53;;
79128;SDS011;68529;43.286;23.360;2024-01-10T06:48:31;13.13;;;7.40;;
79128;SDS011;68529;43.286;23.360;2024-01-10T06:50:57;9.90;;;6.83;;
79128;SDS011;68529;43.286;23.360;2024-01-10T06:53:22;8.80;;;7.03;;
79128;SDS011;68529;43.286;23.360;2024-01-10T06:55:48;9.57;;;6.70;;
79128;SDS011;68529;43.286;23.360;2024-01-10T06:58:13;10.40;;;6.90;;
79128;SDS011;68529;43.286;23.360;2024-01-10T07:00:38;12.67;;;7.33;;
79128;SDS011;68529;43.286;23.360;2024-01-10T07:03:04;9.40;;;6.57;;
79128;SDS011;68529;43.286;23.360;2024-01-10T07:05:30;9.13;;;6.90;;
79128;SDS011;68529;43.286;23.360;2024-01-10T07:07:57;13.50;;;9.50;;
79128;SDS011;68529;43.286;23.360;2024-01-10T07:10:23;13.07;;;8.77;;
79128;SDS011;68529;43.286;23.360;2024-01-10T07:12:52;10.00;;;7.40;;
79128;SDS011;68529;43.286;23.360;2024-01-10T07:15:18;9.93;;;6.43;;
79128;SDS011;68529;43.286;23.360;2024-01-10T07:17:43;9.17;;;6.60;;
79128;SDS011;68529;43.286;23.360;2024-01-10T07:20:09;12.67;;;8.70;;
79128;SDS011;68529;43.286;23.360;2024-01-10T07:22:36;21.57;;;12.40;;
79128;SDS011;68529;43.286;23.360;2024-01-10T07:25:04;13.37;;;9.00;;
79128;SDS011;68529;43.286;23.360;2024-01-10T07:27:31;13.67;;;10.13;;
79128;SDS011;68529;43.286;23.360;2024-01-10T07:29:56;10.93;;;8.57;;
79128;SDS011;68529;43.286;23.360;2024-01-10T07:32:22;13.13;;;8.77;;
79128;SDS011;68529;43.286;23.360;2024-01-10T07:34:48;10.87;;;8.20;;
79128;SDS011;68529;43.286;23.360;2024-01-10T07:37:14;13.40;;;10.17;;
79128;SDS011;68529;43.286;23.360;2024-01-10T07:39:41;21.80;;;14.77;;
79128;SDS011;68529;43.286;23.360;2024-01-10T07:42:07;12.03;;;8.77;;
79128;SDS011;68529;43.286;23.360;2024-01-10T07:44:36;10.50;;;8.33;;
79128;SDS011;68529;43.286;23.360;2024-01-10T07:47:02;10.07;;;8.80;;
79128;SDS011;68529;43.286;23.360;2024-01-10T07:49:27;12.37;;;9.70;;
79128;SDS011;68529;43.286;23.360;2024-01-10T07:51:55;8.83;;;7.13;;
79128;SDS011;68529;43.286;23.360;2024-01-10T07:54:20;8.63;;;6.63;;
79128;SDS011;68529;43.286;23.360;2024-01-10T07:56:46;8.17;;;7.03;;
79128;SDS011;68529;43.286;23.360;2024-01-10T07:59:11;15.20;;;10.60;;
79128;SDS011;68529;43.286;23.360;2024-01-10T08:01:39;11.60;;;7.73;;
79128;SDS011;68529;43.286;23.360;2024-01-10T08:04:05;11.27;;;8.70;;
79128;SDS011;68529;43.286;23.360;2024-01-10T08:06:30;16.53;;;11.43;;
79128;SDS011;68529;43.286;23.360;2024-01-10T08:08:55;16.53;;;11.60;;
79128;SDS011;68529;43.286;23.360;2024-01-10T08:11:21;11.57;;;8.53;;
79128;SDS011;68529;43.286;23.360;2024-01-10T08:13:46;18.87;;;11.87;;
79128;SDS011;68529;43.286;23.360;2024-01-10T08:16:12;9.43;;;7.90;;
79128;SDS011;68529;43.286;23.360;2024-01-10T08:18:37;10.57;;;8.80;;
79128;SDS011;68529;43.286;23.360;2024-01-10T08:21:02;15.63;;;8.87;;
79128;SDS011;68529;43.286;23.360;2024-01-10T08:23:29;12.50;;;9.60;;
79128;SDS011;68529;43.286;23.360;2024-01-10T08:25:54;18.13;;;13.13;;
79128;SDS011;68529;43.286;23.360;2024-01-10T08:28:20;14.23;;;11.43;;
79128;SDS011;68529;43.286;23.360;2024-01-10T08:30:46;12.63;;;9.40;;
79128;SDS011;68529;43.286;23.360;2024-01-10T08:33:11;17.53;;;12.80;;
79128;SDS011;68529;43.286;23.360;2024-01-10T08:35:36;13.63;;;10.10;;
79128;SDS011;68529;43.286;23.360;2024-01-10T08:38:02;11.50;;;8.93;;
79128;SDS011;68529;43.286;23.360;2024-01-10T08:40:29;12.07;;;9.27;;
79128;SDS011;68529;43.286;23.360;2024-01-10T08:42:55;10.70;;;9.00;;
79128;SDS011;68529;43.286;23.360;2024-01-10T08:45:20;11.67;;;10.23;;
79128;SDS011;68529;43.286;23.360;2024-01-10T08:47:45;11.80;;;9.57;;
79128;SDS011;68529;43.286;23.360;2024-01-10T08:50:11;10.37;;;8.30;;
79128;SDS011;68529;43.286;23.360;2024-01-10T08:52:36;12.33;;;9.43;;
79128;SDS011;68529;43.286;23.360;2024-01-10T08:55:07;12.20;;;8.87;;
79128;SDS011;68529;43.286;23.360;2024-01-10T08:57:33;12.23;;;8.13;;
79128;SDS011;68529;43.286;23.360;2024-01-10T08:59:58;11.40;;;8.00;;
79128;SDS011;68529;43.286;23.360;2024-01-10T09:02:24;11.83;;;8.53;;
79128;SDS011;68529;43.286;23.360;2024-01-10T09:04:52;10.33;;;8.70;;
79128;SDS011;68529;43.286;23.360;2024-01-10T09:07:17;11.30;;;8.37;;
79128;SDS011;68529;43.286;23.360;2024-01-10T09:09:43;9.93;;;8.23;;
79128;SDS011;68529;43.286;23.360;2024-01-10T09:12:08;13.07;;;8.37;;
79128;SDS011;68529;43.286;23.360;2024-01-10T09:14:34;11.60;;;8.77;;
79128;SDS011;68529;43.286;23.360;2024-01-10T09:16:59;11.80;;;8.90;;
79128;SDS011;68529;43.286;23.360;2024-01-10T09:19:28;10.47;;;8.97;;
79128;SDS011;68529;43.286;23.360;2024-01-10T09:21:54;12.60;;;9.53;;
79128;SDS011;68529;43.286;23.360;2024-01-10T09:24:21;12.00;;;10.27;;
79128;SDS011;68529;43.286;23.360;2024-01-10T09:26:46;13.23;;;11.13;;
79128;SDS011;68529;43.286;23.360;2024-01-10T09:29:12;14.47;;;11.50;;
79128;SDS011;68529;43.286;23.360;2024-01-10T09:31:37;20.47;;;14.80;;
79128;SDS011;68529;43.286;23.360;2024-01-10T09:34:02;13.17;;;11.57;;
79128;SDS011;68529;43.286;23.360;2024-01-10T09:36:28;15.07;;;12.07;;
79128;SDS011;68529;43.286;23.360;2024-01-10T09:38:53;12.00;;;9.97;;
79128;SDS011;68529;43.286;23.360;2024-01-10T09:41:19;11.53;;;9.33;;
79128;SDS011;68529;43.286;23.360;2024-01-10T09:43:44;11.00;;;8.30;;
79128;SDS011;68529;43.286;23.360;2024-01-10T09:46:10;11.87;;;9.30;;
79128;SDS011;68529;43.286;23.360;2024-01-10T09:48:36;11.30;;;9.07;;
79128;SDS011;68529;43.286;23.360;2024-01-10T09:51:02;10.57;;;8.40;;
79128;SDS011;68529;43.286;23.360;2024-01-10T09:53:27;9.27;;;8.27;;
79128;SDS011;68529;43.286;23.360;2024-01-10T09:55:56;8.17;;;6.83;;
79128;SDS011;68529;43.286;23.360;2024-01-10T09:58:25;8.73;;;7.83;;
79128;SDS011;68529;43.286;23.360;2024-01-10T10:00:50;10.13;;;8.10;;
79128;SDS011;68529;43.286;23.360;2024-01-10T10:03:17;8.80;;;7.90;;
79128;SDS011;68529;43.286;23.360;2024-01-10T10:05:43;11.60;;;9.10;;
79128;SDS011;68529;43.286;23.360;2024-01-10T10:08:09;57.27;;;35.30;;
79128;SDS011;68529;43.286;23.360;2024-01-10T10:10:36;23.07;;;16.63;;
79128;SDS011;68529;43.286;23.360;2024-01-10T10:13:07;40.50;;;24.70;;
79128;SDS011;68529;43.286;23.360;2024-01-10T10:15:35;14.50;;;11.97;;
79128;SDS011;68529;43.286;23.360;2024-01-10T10:18:01;12.90;;;10.70;;
79128;SDS011;68529;43.286;23.360;2024-01-10T10:20:27;14.77;;;11.40;;
79128;SDS011;68529;43.286;23.360;2024-01-10T10:25:33;14.87;;;11.07;;
79128;SDS011;68529;43.286;23.360;2024-01-10T10:28:01;22.97;;;15.47;;
79128;SDS011;68529;43.286;23.360;2024-01-10T10:30:28;12.93;;;10.07;;
79128;SDS011;68529;43.286;23.360;2024-01-10T10:32:55;15.37;;;12.17;;
79128;SDS011;68529;43.286;23.360;2024-01-10T10:35:21;12.23;;;10.27;;
79128;SDS011;68529;43.286;23.360;2024-01-10T10:37:50;15.70;;;12.43;;
79128;SDS011;68529;43.286;23.360;2024-01-10T10:40:19;13.13;;;8.97;;
79128;SDS011;68529;43.286;23.360;2024-01-10T10:42:46;12.80;;;9.33;;
79128;SDS011;68529;43.286;23.360;2024-01-10T10:45:17;10.20;;;8.27;;
79128;SDS011;68529;43.286;23.360;2024-01-10T10:47:46;10.77;;;8.60;;
79128;SDS011;68529;43.286;23.360;2024-01-10T10:50:23;9.67;;;8.43;;
79128;SDS011;68529;43.286;23.360;2024-01-10T10:52:50;9.80;;;8.37;;
79128;SDS011;68529;43.286;23.360;2024-01-10T10:55:17;13.37;;;10.70;;
79128;SDS011;68529;43.286;23.360;2024-01-10T10:57:44;11.63;;;9.47;;
79128;SDS011;68529;43.286;23.360;2024-01-10T11:00:14;11.53;;;9.53;;
79128;SDS011;68529;43.286;23.360;2024-01-10T11:02:42;19.03;;;12.93;;
79128;SDS011;68529;43.286;23.360;2024-01-10T11:05:11;12.70;;;10.77;;
79128;SDS011;68529;43.286;23.360;2024-01-10T11:07:40;14.93;;;12.60;;
79128;SDS011;68529;43.286;23.360;2024-01-10T11:10:11;19.00;;;13.37;;
79128;SDS011;68529;43.286;23.360;2024-01-10T11:24:04;15.87;;;11.80;;
79128;SDS011;68529;43.286;23.360;2024-01-10T11:26:32;12.60;;;10.10;;
79128;SDS011;68529;43.286;23.360;2024-01-10T11:28:58;13.07;;;10.87;;
79128;SDS011;68529;43.286;23.360;2024-01-10T11:31:29;13.53;;;11.23;;
79128;SDS011;68529;43.286;23.360;2024-01-10T11:34:00;12.67;;;10.23;;
79128;SDS011;68529;43.286;23.360;2024-01-10T11:36:26;12.73;;;10.53;;
79128;SDS011;68529;43.286;23.360;2024-01-10T11:41:23;12.73;;;9.87;;
79128;SDS011;68529;43.286;23.360;2024-01-10T11:46:40;10.83;;;8.23;;
79128;SDS011;68529;43.286;23.360;2024-01-10T11:49:08;11.03;;;8.90;;
79128;SDS011;68529;43.286;23.360;2024-01-10T11:51:37;11.83;;;8.40;;
79128;SDS011;68529;43.286;23.360;2024-01-10T11:54:03;10.10;;;7.63;;
79128;SDS011;68529;43.286;23.360;2024-01-10T11:56:38;13.97;;;8.53;;
79128;SDS011;68529;43.286;23.360;2024-01-10T11:59:09;10.67;;;8.03;;
79128;SDS011;68529;43.286;23.360;2024-01-10T12:01:41;9.17;;;8.20;;
79128;SDS011;68529;43.286;23.360;2024-01-10T12:04:08;10.73;;;8.43;;
79128;SDS011;68529;43.286;23.360;2024-01-10T12:06:37;9.93;;;8.10;;
79128;SDS011;68529;43.286;23.360;2024-01-10T12:09:03;10.53;;;8.13;;
79128;SDS011;68529;43.286;23.360;2024-01-10T12:11:37;10.40;;;7.97;;
79128;SDS011;68529;43.286;23.360;2024-01-10T12:14:04;8.63;;;7.70;;
79128;SDS011;68529;43.286;23.360;2024-01-10T12:16:30;8.60;;;7.67;;
79128;SDS011;68529;43.286;23.360;2024-01-10T12:18:57;9.87;;;7.43;;
79128;SDS011;68529;43.286;23.360;2024-01-10T12:21:22;10.83;;;8.03;;
79128;SDS011;68529;43.286;23.360;2024-01-10T12:23:48;10.90;;;8.77;;
79128;SDS011;68529;43.286;23.360;2024-01-10T12:26:13;8.43;;;7.50;;
79128;SDS011;68529;43.286;23.360;2024-01-10T12:28:39;10.13;;;7.87;;
79128;SDS011;68529;43.286;23.360;2024-01-10T12:31:05;9.87;;;7.80;;
79128;SDS011;68529;43.286;23.360;2024-01-10T12:33:37;9.27;;;7.87;;
79128;SDS011;68529;43.286;23.360;2024-01-10T12:36:06;9.77;;;8.10;;
79128;SDS011;68529;43.286;23.360;2024-01-10T12:38:34;10.23;;;8.97;;
79128;SDS011;68529;43.286;23.360;2024-01-10T12:41:00;8.63;;;7.53;;
79128;SDS011;68529;43.286;23.360;2024-01-10T12:43:26;7.97;;;6.80;;
79128;SDS011;68529;43.286;23.360;2024-01-10T12:48:32;8.60;;;6.57;;
79128;SDS011;68529;43.286;23.360;2024-01-10T12:51:01;9.13;;;7.03;;
79128;SDS011;68529;43.286;23.360;2024-01-10T12:53:31;10.17;;;7.67;;
79128;SDS011;68529;43.286;23.360;2024-01-10T12:55:58;9.07;;;7.73;;
79128;SDS011;68529;43.286;23.360;2024-01-10T12:58:23;8.87;;;7.60;;
79128;SDS011;68529;43.286;23.360;2024-01-10T13:00:49;9.90;;;8.17;;
79128;SDS011;68529;43.286;23.360;2024-01-10T13:03:14;8.53;;;7.37;;
79128;SDS011;68529;43.286;23.360;2024-01-10T13:05:40;11.43;;;8.80;;
79128;SDS011;68529;43.286;23.360;2024-01-10T13:08:06;10.20;;;8.07;;
79128;SDS011;68529;43.286;23.360;2024-01-10T13:10:32;8.43;;;7.17;;
79128;SDS011;68529;43.286;23.360;2024-01-10T13:12:58;9.90;;;7.30;;
79128;SDS011;68529;43.286;23.360;2024-01-10T13:15:23;9.63;;;7.10;;
79128;SDS011;68529;43.286;23.360;2024-01-10T13:17:48;10.40;;;7.57;;
79128;SDS011;68529;43.286;23.360;2024-01-10T13:20:14;8.47;;;7.40;;
79128;SDS011;68529;43.286;23.360;2024-01-10T13:22:39;7.53;;;6.13;;
79128;SDS011;68529;43.286;23.360;2024-01-10T13:25:05;7.93;;;6.67;;
79128;SDS011;68529;43.286;23.360;2024-01-10T13:27:31;10.33;;;7.27;;
79128;SDS011;68529;43.286;23.360;2024-01-10T13:29:57;7.97;;;6.13;;
79128;SDS011;68529;43.286;23.360;2024-01-10T13:32:22;7.23;;;5.60;;
79128;SDS011;68529;43.286;23.360;2024-01-10T13:34:48;7.93;;;5.73;;
79128;SDS011;68529;43.286;23.360;2024-01-10T13:37:13;7.63;;;6.30;;
79128;SDS011;68529;43.286;23.360;2024-01-10T13:39:40;8.33;;;6.27;;
79128;SDS011;68529;43.286;23.360;2024-01-10T13:42:06;8.27;;;6.97;;
79128;SDS011;68529;43.286;23.360;2024-01-10T13:44:31;21.43;;;13.33;;
79128;SDS011;68529;43.286;23.360;2024-01-10T13:46:57;10.70;;;7.03;;
79128;SDS011;68529;43.286;23.360;2024-01-10T13:49:22;6.47;;;5.43;;
79128;SDS011;68529;43.286;23.360;2024-01-10T13:51:47;6.63;;;5.50;;
79128;SDS011;68529;43.286;23.360;2024-01-10T13:54:13;7.20;;;5.83;;
79128;SDS011;68529;43.286;23.360;2024-01-10T13:56:38;9.73;;;7.10;;
79128;SDS011;68529;43.286;23.360;2024-01-10T13:59:05;9.13;;;6.17;;
79128;SDS011;68529;43.286;23.360;2024-01-10T14:01:30;9.93;;;6.10;;
79128;SDS011;68529;43.286;23.360;2024-01-10T14:03:56;7.10;;;5.43;;
79128;SDS011;68529;43.286;23.360;2024-01-10T14:06:21;8.37;;;6.30;;
79128;SDS011;68529;43.286;23.360;2024-01-10T14:08:47;6.23;;;5.63;;
79128;SDS011;68529;43.286;23.360;2024-01-10T14:11:14;9.10;;;6.43;;
79128;SDS011;68529;43.286;23.360;2024-01-10T14:13:39;6.80;;;6.03;;
79128;SDS011;68529;43.286;23.360;2024-01-10T14:16:05;6.87;;;5.70;;
79128;SDS011;68529;43.286;23.360;2024-01-10T14:18:31;7.33;;;5.53;;
79128;SDS011;68529;43.286;23.360;2024-01-10T14:20:56;9.37;;;5.90;;
79128;SDS011;68529;43.286;23.360;2024-01-10T14:23:21;9.27;;;6.57;;
79128;SDS011;68529;43.286;23.360;2024-01-10T14:25:47;9.50;;;7.67;;
79128;SDS011;68529;43.286;23.360;2024-01-10T14:28:12;8.90;;;6.77;;
79128;SDS011;68529;43.286;23.360;2024-01-10T14:30:37;8.60;;;6.37;;
79128;SDS011;68529;43.286;23.360;2024-01-10T14:33:03;9.57;;;6.77;;
79128;SDS011;68529;43.286;23.360;2024-01-10T14:35:29;8.37;;;6.17;;
79128;SDS011;68529;43.286;23.360;2024-01-10T14:37:54;8.20;;;6.50;;
79128;SDS011;68529;43.286;23.360;2024-01-10T14:40:20;8.77;;;6.60;;
79128;SDS011;68529;43.286;23.360;2024-01-10T14:42:48;8.20;;;6.73;;